sensor_id;sensor_type;location;lat;lon;timestamp;P1;durP1;ratioP1;P2;durP2;ratioP2
9722;SDS011;4900;49.306;8.500;2023-03-14T00:01:12;1.60;;;1.43;;
9722;SDS011;4900;49.306;8.500;2023-03-14T00:03:42;1.57;;;1.40;;
9722;SDS011;4900;49.306;8.500;2023-03-14T00:06:08;3.23;;;1.50;;
9722;SDS011;4900;49.306;8.500;2023-03-14T00:08:34;1.50;;;1.40;;
9722;SDS011;4900;49.306;8.500;2023-03-14T00:11:07;1.40;;;1.23;;
9722;SDS011;4900;49.306;8.500;2023-03-14T00:13:34;2.00;;;1.50;;
9722;SDS011;4900;49.306;8.500;2023-03-14T00:16:06;2.23;;;1.33;;
9722;SDS011;4900;49.306;8.500;2023-03-14T00:18:34;2.07;;;1.30;;
9722;SDS011;4900;49.306;8.500;2023-03-14T00:21:01;1.40;;;1.30;;
9722;SDS011;4900;49.306;8.500;2023-03-14T00:23:27;1.93;;;1.20;;
9722;SDS011;4900;49.306;8.500;2023-03-14T00:25:57;1.43;;;1.33;;
9722;SDS011;4900;49.306;8.500;2023-03-14T00:28:24;1.67;;;1.13;;
9722;SDS011;4900;49.306;8.500;2023-03-14T00:30:50;2.40;;;1.40;;
9722;SDS011;4900;49.306;8.500;2023-03-14T00:33:15;2.50;;;1.47;;
9722;SDS011;4900;49.306;8.500;2023-03-14T00:35:41;1.43;;;1.23;;
9722;SDS011;4900;49.306;8.500;2023-03-14T00:38:06;2.83;;;1.30;;
9722;SDS011;4900;49.306;8.500;2023-03-14T00:40:32;2.17;;;1.30;;
9722;SDS011;4900;49.306;8.500;2023-03-14T00:42:57;2.20;;;1.23;;
9722;SDS011;4900;49.306;8.500;2023-03-14T00:45:23;1.40;;;1.20;;
9722;SDS011;4900;49.306;8.500;2023-03-14T00:47:48;1.90;;;1.40;;
9722;SDS011;4900;49.306;8.500;2023-03-14T00:50:14;1.23;;;1.13;;
9722;SDS011;4900;49.306;8.500;2023-03-14T00:52:40;1.53;;;1.10;;
9722;SDS011;4900;49.306;8.500;2023-03-14T00:55:05;1.93;;;1.40;;
9722;SDS011;4900;49.306;8.500;2023-03-14T00:57:31;1.53;;;1.23;;
9722;SDS011;4900;49.306;8.500;2023-03-14T00:59:57;1.33;;;1.20;;
9722;SDS011;4900;49.306;8.500;2023-03-14T01:02:22;1.33;;;1.20;;
9722;SDS011;4900;49.306;8.500;2023-03-14T01:04:48;1.33;;;1.23;;
9722;SDS011;4900;49.306;8.500;2023-03-14T01:07:14;1.40;;;1.30;;
9722;SDS011;4900;49.306;8.500;2023-03-14T01:09:40;1.63;;;1.30;;
9722;SDS011;4900;49.306;8.500;2023-03-14T01:12:06;2.80;;;1.60;;
9722;SDS011;4900;49.306;8.500;2023-03-14T01:14:31;2.87;;;1.40;;
9722;SDS011;4900;49.306;8.500;2023-03-14T01:16:57;2.53;;;1.40;;
9722;SDS011;4900;49.306;8.500;2023-03-14T01:19:26;1.63;;;1.30;;
9722;SDS011;4900;49.306;8.500;2023-03-14T01:21:53;2.97;;;1.30;;
9722;SDS011;4900;49.306;8.500;2023-03-14T01:24:18;1.50;;;1.27;;
9722;SDS011;4900;49.306;8.500;2023-03-14T01:26:45;1.77;;;1.30;;
9722;SDS011;4900;49.306;8.500;2023-03-14T01:29:11;1.90;;;1.40;;
9722;SDS011;4900;49.306;8.500;2023-03-14T01:31:36;1.87;;;1.40;;
9722;SDS011;4900;49.306;8.500;2023-03-14T01:34:02;2.90;;;1.80;;
9722;SDS011;4900;49.306;8.500;2023-03-14T01:36:27;2.50;;;2.30;;
9722;SDS011;4900;49.306;8.500;2023-03-14T01:38:53;2.63;;;2.43;;
9722;SDS011;4900;49.306;8.500;2023-03-14T01:41:20;3.40;;;2.67;;
9722;SDS011;4900;49.306;8.500;2023-03-14T01:43:47;3.57;;;2.80;;
9722;SDS011;4900;49.306;8.500;2023-03-14T01:48:55;2.70;;;2.50;;
9722;SDS011;4900;49.306;8.500;2023-03-14T01:56:52;2.90;;;2.10;;
9722;SDS011;4900;49.306;8.500;2023-03-14T01:59:22;3.07;;;1.80;;
9722;SDS011;4900;49.306;8.500;2023-03-14T02:01:49;3.10;;;1.63;;
9722;SDS011;4900;49.306;8.500;2023-03-14T02:04:17;2.90;;;1.70;;
9722;SDS011;4900;49.306;8.500;2023-03-14T02:06:47;3.30;;;1.60;;
9722;SDS011;4900;49.306;8.500;2023-03-14T02:09:21;2.27;;;1.40;;
9722;SDS011;4900;49.306;8.500;2023-03-14T02:11:47;5.40;;;1.90;;
9722;SDS011;4900;49.306;8.500;2023-03-14T02:14:20;3.40;;;2.07;;
9722;SDS011;4900;49.306;8.500;2023-03-14T02:16:52;4.47;;;1.97;;
9722;SDS011;4900;49.306;8.500;2023-03-14T02:19:18;3.77;;;2.60;;
9722;SDS011;4900;49.306;8.500;2023-03-14T02:21:59;3.53;;;2.30;;
9722;SDS011;4900;49.306;8.500;2023-03-14T02:27:38;1.40;;;1.30;;
9722;SDS011;4900;49.306;8.500;2023-03-14T02:30:05;2.47;;;1.40;;
9722;SDS011;4900;49.306;8.500;2023-03-14T02:32:36;2.20;;;1.30;;
9722;SDS011;4900;49.306;8.500;2023-03-14T02:35:06;3.47;;;1.50;;
9722;SDS011;4900;49.306;8.500;2023-03-14T02:37:36;3.40;;;1.50;;
9722;SDS011;4900;49.306;8.500;2023-03-14T02:40:06;3.20;;;1.60;;
9722;SDS011;4900;49.306;8.500;2023-03-14T02:42:32;2.90;;;1.50;;
9722;SDS011;4900;49.306;8.500;2023-03-14T02:45:01;4.03;;;1.70;;
9722;SDS011;4900;49.306;8.500;2023-03-14T02:47:48;3.67;;;1.67;;
9722;SDS011;4900;49.306;8.500;2023-03-14T02:50:18;2.30;;;1.60;;
9722;SDS011;4900;49.306;8.500;2023-03-14T02:52:47;3.00;;;1.77;;
9722;SDS011;4900;49.306;8.500;2023-03-14T02:55:13;3.13;;;1.83;;
9722;SDS011;4900;49.306;8.500;2023-03-14T02:57:38;4.10;;;2.20;;
9722;SDS011;4900;49.306;8.500;2023-03-14T03:00:04;2.83;;;2.53;;
9722;SDS011;4900;49.306;8.500;2023-03-14T03:02:30;3.10;;;2.60;;
9722;SDS011;4900;49.306;8.500;2023-03-14T03:04:56;3.47;;;2.93;;
9722;SDS011;4900;49.306;8.500;2023-03-14T03:07:21;3.23;;;2.70;;
9722;SDS011;4900;49.306;8.500;2023-03-14T03:09:47;4.07;;;2.47;;
9722;SDS011;4900;49.306;8.500;2023-03-14T03:12:13;3.33;;;2.20;;
9722;SDS011;4900;49.306;8.500;2023-03-14T03:14:38;3.03;;;2.20;;
9722;SDS011;4900;49.306;8.500;2023-03-14T03:17:04;3.90;;;2.40;;
9722;SDS011;4900;49.306;8.500;2023-03-14T03:19:30;4.03;;;2.50;;
9722;SDS011;4900;49.306;8.500;2023-03-14T03:21:56;2.30;;;2.10;;
9722;SDS011;4900;49.306;8.500;2023-03-14T03:24:23;3.13;;;2.37;;
9722;SDS011;4900;49.306;8.500;2023-03-14T03:26:49;2.83;;;2.17;;
9722;SDS011;4900;49.306;8.500;2023-03-14T03:29:14;3.50;;;2.40;;
9722;SDS011;4900;49.306;8.500;2023-03-14T03:31:40;2.10;;;1.90;;
9722;SDS011;4900;49.306;8.500;2023-03-14T03:34:05;3.87;;;2.10;;
9722;SDS011;4900;49.306;8.500;2023-03-14T03:36:31;2.67;;;2.10;;
9722;SDS011;4900;49.306;8.500;2023-03-14T03:38:56;2.57;;;2.13;;
9722;SDS011;4900;49.306;8.500;2023-03-14T03:41:22;3.33;;;2.20;;
9722;SDS011;4900;49.306;8.500;2023-03-14T03:43:48;2.37;;;2.10;;
9722;SDS011;4900;49.306;8.500;2023-03-14T03:46:13;2.83;;;1.90;;
9722;SDS011;4900;49.306;8.500;2023-03-14T03:48:39;2.93;;;1.80;;
9722;SDS011;4900;49.306;8.500;2023-03-14T03:51:05;2.50;;;1.63;;
9722;SDS011;4900;49.306;8.500;2023-03-14T03:53:31;5.33;;;1.60;;
9722;SDS011;4900;49.306;8.500;2023-03-14T03:55:56;3.40;;;1.60;;
9722;SDS011;4900;49.306;8.500;2023-03-14T03:58:22;1.50;;;1.40;;
9722;SDS011;4900;49.306;8.500;2023-03-14T04:00:47;3.60;;;1.40;;
9722;SDS011;4900;49.306;8.500;2023-03-14T04:03:13;1.77;;;1.37;;
9722;SDS011;4900;49.306;8.500;2023-03-14T04:05:38;2.47;;;1.30;;
9722;SDS011;4900;49.306;8.500;2023-03-14T04:08:04;1.50;;;1.20;;
9722;SDS011;4900;49.306;8.500;2023-03-14T04:10:30;1.53;;;1.37;;
9722;SDS011;4900;49.306;8.500;2023-03-14T04:12:58;2.50;;;1.30;;
9722;SDS011;4900;49.306;8.500;2023-03-14T04:15:24;2.83;;;1.30;;
9722;SDS011;4900;49.306;8.500;2023-03-14T04:17:49;2.30;;;1.63;;
9722;SDS011;4900;49.306;8.500;2023-03-14T04:20:15;2.23;;;1.40;;
9722;SDS011;4900;49.306;8.500;2023-03-14T04:22:41;1.80;;;1.50;;
9722;SDS011;4900;49.306;8.500;2023-03-14T04:25:06;1.93;;;1.30;;
9722;SDS011;4900;49.306;8.500;2023-03-14T04:27:32;1.60;;;1.37;;
9722;SDS011;4900;49.306;8.500;2023-03-14T04:29:58;4.63;;;1.50;;
9722;SDS011;4900;49.306;8.500;2023-03-14T04:32:23;2.97;;;1.30;;
9722;SDS011;4900;49.306;8.500;2023-03-14T04:34:49;3.13;;;1.53;;
9722;SDS011;4900;49.306;8.500;2023-03-14T04:37:14;2.83;;;1.33;;
9722;SDS011;4900;49.306;8.500;2023-03-14T04:39:40;3.20;;;1.47;;
9722;SDS011;4900;49.306;8.500;2023-03-14T04:42:05;3.07;;;1.30;;
9722;SDS011;4900;49.306;8.500;2023-03-14T04:44:31;3.60;;;1.40;;
9722;SDS011;4900;49.306;8.500;2023-03-14T04:46:56;1.90;;;1.23;;
9722;SDS011;4900;49.306;8.500;2023-03-14T04:49:22;1.93;;;1.50;;
9722;SDS011;4900;49.306;8.500;2023-03-14T04:51:48;3.07;;;1.30;;
9722;SDS011;4900;49.306;8.500;2023-03-14T04:54:16;3.33;;;1.30;;
9722;SDS011;4900;49.306;8.500;2023-03-14T04:56:42;4.40;;;1.50;;
9722;SDS011;4900;49.306;8.500;2023-03-14T04:59:07;2.53;;;1.50;;
9722;SDS011;4900;49.306;8.500;2023-03-14T05:01:33;6.13;;;1.40;;
9722;SDS011;4900;49.306;8.500;2023-03-14T05:03:59;2.83;;;1.40;;
9722;SDS011;4900;49.306;8.500;2023-03-14T05:06:25;1.53;;;1.20;;
9722;SDS011;4900;49.306;8.500;2023-03-14T05:08:50;4.20;;;1.40;;
9722;SDS011;4900;49.306;8.500;2023-03-14T05:11:16;2.70;;;1.33;;
9722;SDS011;4900;49.306;8.500;2023-03-14T05:13:42;2.60;;;1.10;;
9722;SDS011;4900;49.306;8.500;2023-03-14T05:16:08;3.27;;;1.33;;
9722;SDS011;4900;49.306;8.500;2023-03-14T05:18:35;2.43;;;1.40;;
9722;SDS011;4900;49.306;8.500;2023-03-14T05:21:01;4.03;;;1.40;;
9722;SDS011;4900;49.306;8.500;2023-03-14T05:23:27;4.23;;;1.47;;
9722;SDS011;4900;49.306;8.500;2023-03-14T05:25:52;2.20;;;1.30;;
9722;SDS011;4900;49.306;8.500;2023-03-14T05:28:18;2.80;;;1.50;;
9722;SDS011;4900;49.306;8.500;2023-03-14T05:30:44;6.40;;;1.57;;
9722;SDS011;4900;49.306;8.500;2023-03-14T05:33:09;4.23;;;1.30;;
9722;SDS011;4900;49.306;8.500;2023-03-14T05:35:35;3.57;;;1.67;;
9722;SDS011;4900;49.306;8.500;2023-03-14T05:38:00;2.87;;;1.43;;
9722;SDS011;4900;49.306;8.500;2023-03-14T05:40:26;2.57;;;1.40;;
9722;SDS011;4900;49.306;8.500;2023-03-14T05:42:51;2.50;;;1.33;;
9722;SDS011;4900;49.306;8.500;2023-03-14T05:45:17;2.60;;;1.40;;
9722;SDS011;4900;49.306;8.500;2023-03-14T05:47:43;2.70;;;1.23;;
9722;SDS011;4900;49.306;8.500;2023-03-14T05:50:09;2.27;;;1.20;;
9722;SDS011;4900;49.306;8.500;2023-03-14T05:52:35;2.43;;;1.40;;
9722;SDS011;4900;49.306;8.500;2023-03-14T05:55:01;2.40;;;1.10;;
9722;SDS011;4900;49.306;8.500;2023-03-14T05:57:26;3.10;;;1.30;;
9722;SDS011;4900;49.306;8.500;2023-03-14T05:59:52;2.17;;;1.20;;
9722;SDS011;4900;49.306;8.500;2023-03-14T06:02:17;1.97;;;1.30;;
9722;SDS011;4900;49.306;8.500;2023-03-14T06:04:43;3.27;;;1.37;;
9722;SDS011;4900;49.306;8.500;2023-03-14T06:07:08;2.67;;;1.33;;
9722;SDS011;4900;49.306;8.500;2023-03-14T06:09:34;3.90;;;1.50;;
9722;SDS011;4900;49.306;8.500;2023-03-14T06:11:59;2.53;;;1.23;;
9722;SDS011;4900;49.306;8.500;2023-03-14T06:14:25;5.20;;;1.20;;
9722;SDS011;4900;49.306;8.500;2023-03-14T06:16:51;3.23;;;1.30;;
9722;SDS011;4900;49.306;8.500;2023-03-14T06:19:17;2.27;;;1.20;;
9722;SDS011;4900;49.306;8.500;2023-03-14T06:21:43;1.57;;;1.10;;
9722;SDS011;4900;49.306;8.500;2023-03-14T06:24:08;3.70;;;1.40;;
9722;SDS011;4900;49.306;8.500;2023-03-14T06:26:34;3.70;;;1.27;;
9722;SDS011;4900;49.306;8.500;2023-03-14T06:28:59;5.63;;;1.40;;
9722;SDS011;4900;49.306;8.500;2023-03-14T06:31:29;2.47;;;1.53;;
9722;SDS011;4900;49.306;8.500;2023-03-14T06:33:55;3.80;;;1.80;;
9722;SDS011;4900;49.306;8.500;2023-03-14T06:36:21;1.87;;;1.20;;
9722;SDS011;4900;49.306;8.500;2023-03-14T06:38:47;4.07;;;1.30;;
9722;SDS011;4900;49.306;8.500;2023-03-14T06:41:12;2.33;;;1.50;;
9722;SDS011;4900;49.306;8.500;2023-03-14T06:43:38;2.67;;;1.20;;
9722;SDS011;4900;49.306;8.500;2023-03-14T06:46:03;3.13;;;1.40;;
9722;SDS011;4900;49.306;8.500;2023-03-14T06:48:29;2.53;;;1.30;;
9722;SDS011;4900;49.306;8.500;2023-03-14T06:50:55;2.93;;;1.50;;
9722;SDS011;4900;49.306;8.500;2023-03-14T06:53:20;3.50;;;1.40;;
9722;SDS011;4900;49.306;8.500;2023-03-14T06:55:46;3.30;;;1.40;;
9722;SDS011;4900;49.306;8.500;2023-03-14T06:58:12;2.50;;;1.20;;
9722;SDS011;4900;49.306;8.500;2023-03-14T07:00:37;3.23;;;1.37;;
9722;SDS011;4900;49.306;8.500;2023-03-14T07:03:03;2.97;;;1.20;;
9722;SDS011;4900;49.306;8.500;2023-03-14T07:05:29;4.73;;;1.50;;
9722;SDS011;4900;49.306;8.500;2023-03-14T07:07:54;2.93;;;1.60;;
9722;SDS011;4900;49.306;8.500;2023-03-14T07:10:20;4.37;;;1.60;;
9722;SDS011;4900;49.306;8.500;2023-03-14T07:12:46;3.47;;;1.60;;
9722;SDS011;4900;49.306;8.500;2023-03-14T07:15:12;2.80;;;1.73;;
9722;SDS011;4900;49.306;8.500;2023-03-14T07:17:37;4.73;;;2.40;;
9722;SDS011;4900;49.306;8.500;2023-03-14T07:20:03;2.90;;;2.00;;
9722;SDS011;4900;49.306;8.500;2023-03-14T07:22:30;3.47;;;1.73;;
9722;SDS011;4900;49.306;8.500;2023-03-14T07:24:56;3.38;;;1.77;;
9722;SDS011;4900;49.306;8.500;2023-03-14T07:27:21;3.85;;;1.80;;
9722;SDS011;4900;49.306;8.500;2023-03-14T07:29:47;2.95;;;1.80;;
9722;SDS011;4900;49.306;8.500;2023-03-14T07:32:13;3.40;;;1.90;;
9722;SDS011;4900;49.306;8.500;2023-03-14T07:34:40;3.63;;;1.70;;
9722;SDS011;4900;49.306;8.500;2023-03-14T07:37:06;2.90;;;2.00;;
9722;SDS011;4900;49.306;8.500;2023-03-14T07:39:32;2.35;;;1.60;;
9722;SDS011;4900;49.306;8.500;2023-03-14T07:41:57;3.97;;;1.60;;
9722;SDS011;4900;49.306;8.500;2023-03-14T07:44:23;2.83;;;1.52;;
9722;SDS011;4900;49.306;8.500;2023-03-14T07:46:48;3.78;;;1.88;;
9722;SDS011;4900;49.306;8.500;2023-03-14T07:49:14;2.70;;;1.50;;
9722;SDS011;4900;49.306;8.500;2023-03-14T07:51:39;2.58;;;1.83;;
9722;SDS011;4900;49.306;8.500;2023-03-14T07:54:05;3.97;;;2.03;;
9722;SDS011;4900;49.306;8.500;2023-03-14T07:56:30;2.88;;;1.77;;
9722;SDS011;4900;49.306;8.500;2023-03-14T07:58:56;3.05;;;1.67;;
9722;SDS011;4900;49.306;8.500;2023-03-14T08:01:22;2.50;;;1.65;;
9722;SDS011;4900;49.306;8.500;2023-03-14T08:03:47;2.47;;;1.42;;
9722;SDS011;4900;49.306;8.500;2023-03-14T08:06:13;3.15;;;1.58;;
9722;SDS011;4900;49.306;8.500;2023-03-14T08:08:39;2.65;;;1.30;;
9722;SDS011;4900;49.306;8.500;2023-03-14T08:11:05;2.97;;;1.40;;
9722;SDS011;4900;49.306;8.500;2023-03-14T08:13:33;1.55;;;1.10;;
9722;SDS011;4900;49.306;8.500;2023-03-14T08:15:59;4.40;;;1.80;;
9722;SDS011;4900;49.306;8.500;2023-03-14T08:18:25;3.70;;;1.40;;
9722;SDS011;4900;49.306;8.500;2023-03-14T08:20:51;2.17;;;1.27;;
9722;SDS011;4900;49.306;8.500;2023-03-14T08:23:16;3.55;;;1.40;;
9722;SDS011;4900;49.306;8.500;2023-03-14T08:25:42;2.60;;;1.20;;
9722;SDS011;4900;49.306;8.500;2023-03-14T08:28:08;1.52;;;1.00;;
9722;SDS011;4900;49.306;8.500;2023-03-14T08:30:33;2.15;;;1.08;;
9722;SDS011;4900;49.306;8.500;2023-03-14T08:32:59;2.20;;;1.10;;
9722;SDS011;4900;49.306;8.500;2023-03-14T08:35:25;1.60;;;1.00;;
9722;SDS011;4900;49.306;8.500;2023-03-14T08:37:51;1.23;;;0.90;;
9722;SDS011;4900;49.306;8.500;2023-03-14T08:40:17;1.95;;;1.20;;
9722;SDS011;4900;49.306;8.500;2023-03-14T08:42:43;1.40;;;1.10;;
9722;SDS011;4900;49.306;8.500;2023-03-14T08:45:11;2.65;;;1.30;;
9722;SDS011;4900;49.306;8.500;2023-03-14T08:47:38;1.88;;;1.30;;
9722;SDS011;4900;49.306;8.500;2023-03-14T08:50:05;2.03;;;1.55;;
9722;SDS011;4900;49.306;8.500;2023-03-14T08:52:31;2.25;;;1.42;;
9722;SDS011;4900;49.306;8.500;2023-03-14T08:54:58;2.83;;;1.20;;
9722;SDS011;4900;49.306;8.500;2023-03-14T08:57:24;4.25;;;1.20;;
9722;SDS011;4900;49.306;8.500;2023-03-14T08:59:55;2.67;;;1.80;;
9722;SDS011;4900;49.306;8.500;2023-03-14T09:02:22;3.08;;;2.20;;
9722;SDS011;4900;49.306;8.500;2023-03-14T09:04:52;2.75;;;1.40;;
9722;SDS011;4900;49.306;8.500;2023-03-14T09:07:18;2.08;;;1.40;;
9722;SDS011;4900;49.306;8.500;2023-03-14T09:09:44;2.03;;;1.23;;
9722;SDS011;4900;49.306;8.500;2023-03-14T09:12:09;2.45;;;1.80;;
9722;SDS011;4900;49.306;8.500;2023-03-14T09:14:35;1.70;;;1.40;;
9722;SDS011;4900;49.306;8.500;2023-03-14T09:17:01;2.75;;;1.50;;
9722;SDS011;4900;49.306;8.500;2023-03-14T09:19:27;1.20;;;1.00;;
9722;SDS011;4900;49.306;8.500;2023-03-14T09:21:52;2.38;;;0.93;;
9722;SDS011;4900;49.306;8.500;2023-03-14T09:24:19;1.33;;;1.00;;
9722;SDS011;4900;49.306;8.500;2023-03-14T09:26:45;1.95;;;1.38;;
9722;SDS011;4900;49.306;8.500;2023-03-14T09:29:10;1.10;;;1.00;;
9722;SDS011;4900;49.306;8.500;2023-03-14T09:31:36;2.75;;;1.38;;
9722;SDS011;4900;49.306;8.500;2023-03-14T09:34:01;2.22;;;1.23;;
9722;SDS011;4900;49.306;8.500;2023-03-14T09:36:27;1.25;;;1.15;;
9722;SDS011;4900;49.306;8.500;2023-03-14T09:38:52;1.40;;;1.17;;
9722;SDS011;4900;49.306;8.500;2023-03-14T09:41:23;1.15;;;1.00;;
9722;SDS011;4900;49.306;8.500;2023-03-14T09:43:55;2.03;;;1.25;;
9722;SDS011;4900;49.306;8.500;2023-03-14T09:46:45;2.35;;;1.45;;
9722;SDS011;4900;49.306;8.500;2023-03-14T09:49:30;1.42;;;1.10;;
9722;SDS011;4900;49.306;8.500;2023-03-14T09:51:59;1.52;;;1.10;;
9722;SDS011;4900;49.306;8.500;2023-03-14T09:56:52;1.60;;;1.10;;
9722;SDS011;4900;49.306;8.500;2023-03-14T09:59:18;2.05;;;1.40;;
9722;SDS011;4900;49.306;8.500;2023-03-14T10:01:44;1.90;;;1.33;;
9722;SDS011;4900;49.306;8.500;2023-03-14T10:04:10;1.75;;;1.20;;
9722;SDS011;4900;49.306;8.500;2023-03-14T10:06:40;1.25;;;1.05;;
9722;SDS011;4900;49.306;8.500;2023-03-14T10:09:05;2.03;;;1.17;;
9722;SDS011;4900;49.306;8.500;2023-03-14T10:11:31;1.40;;;1.30;;
9722;SDS011;4900;49.306;8.500;2023-03-14T10:14:06;1.73;;;1.33;;
9722;SDS011;4900;49.306;8.500;2023-03-14T10:16:35;2.70;;;1.33;;
9722;SDS011;4900;49.306;8.500;2023-03-14T10:19:03;1.30;;;1.20;;
9722;SDS011;4900;49.306;8.500;2023-03-14T10:21:35;1.60;;;1.38;;
9722;SDS011;4900;49.306;8.500;2023-03-14T10:26:52;1.30;;;1.20;;
9722;SDS011;4900;49.306;8.500;2023-03-14T10:29:19;1.52;;;1.42;;
9722;SDS011;4900;49.306;8.500;2023-03-14T10:35:03;1.63;;;1.52;;
9722;SDS011;4900;49.306;8.500;2023-03-14T10:39:51;1.63;;;1.30;;
9722;SDS011;4900;49.306;8.500;2023-03-14T10:42:24;1.25;;;1.15;;
9722;SDS011;4900;49.306;8.500;2023-03-14T10:45:04;2.55;;;1.50;;
9722;SDS011;4900;49.306;8.500;2023-03-14T10:47:33;1.65;;;1.10;;
9722;SDS011;4900;49.306;8.500;2023-03-14T10:50:22;1.73;;;1.10;;
9722;SDS011;4900;49.306;8.500;2023-03-14T10:52:55;1.52;;;1.20;;
9722;SDS011;4900;49.306;8.500;2023-03-14T10:55:23;1.33;;;1.23;;
9722;SDS011;4900;49.306;8.500;2023-03-14T10:57:50;2.13;;;1.20;;
9722;SDS011;4900;49.306;8.500;2023-03-14T11:00:18;1.20;;;1.10;;
9722;SDS011;4900;49.306;8.500;2023-03-14T11:02:49;1.30;;;1.20;;
9722;SDS011;4900;49.306;8.500;2023-03-14T11:11:30;1.13;;;1.00;;
9722;SDS011;4900;49.306;8.500;2023-03-14T11:14:02;1.13;;;1.02;;
9722;SDS011;4900;49.306;8.500;2023-03-14T11:22:09;1.10;;;1.00;;
9722;SDS011;4900;49.306;8.500;2023-03-14T11:33:21;2.63;;;1.70;;
9722;SDS011;4900;49.306;8.500;2023-03-14T11:36:12;2.75;;;2.10;;
9722;SDS011;4900;49.306;8.500;2023-03-14T11:41:14;1.30;;;1.20;;
9722;SDS011;4900;49.306;8.500;2023-03-14T11:43:45;1.08;;;1.00;;
9722;SDS011;4900;49.306;8.500;2023-03-14T11:46:17;1.10;;;1.00;;
9722;SDS011;4900;49.306;8.500;2023-03-14T11:51:39;0.80;;;0.80;;
9722;SDS011;4900;49.306;8.500;2023-03-14T11:57:10;0.90;;;0.90;;
9722;SDS011;4900;49.306;8.500;2023-03-14T12:08:11;1.15;;;0.90;;
9722;SDS011;4900;49.306;8.500;2023-03-14T12:10:58;0.90;;;0.90;;
9722;SDS011;4900;49.306;8.500;2023-03-14T12:13:28;1.90;;;0.95;;
9722;SDS011;4900;49.306;8.500;2023-03-14T12:15:58;1.80;;;1.02;;
9722;SDS011;4900;49.306;8.500;2023-03-14T12:18:29;0.85;;;0.85;;
9722;SDS011;4900;49.306;8.500;2023-03-14T12:20:58;1.10;;;1.00;;
9722;SDS011;4900;49.306;8.500;2023-03-14T12:23:43;1.95;;;0.90;;
9722;SDS011;4900;49.306;8.500;2023-03-14T12:26:14;0.80;;;0.80;;
9722;SDS011;4900;49.306;8.500;2023-03-14T12:28:43;0.90;;;0.90;;
9722;SDS011;4900;49.306;8.500;2023-03-14T12:34:03;1.38;;;0.95;;
9722;SDS011;4900;49.306;8.500;2023-03-14T12:39:33;1.20;;;1.10;;
9722;SDS011;4900;49.306;8.500;2023-03-14T12:42:10;1.00;;;0.90;;
9722;SDS011;4900;49.306;8.500;2023-03-14T12:44:43;1.90;;;1.10;;
9722;SDS011;4900;49.306;8.500;2023-03-14T12:49:48;1.30;;;1.10;;
9722;SDS011;4900;49.306;8.500;2023-03-14T12:52:19;1.65;;;1.27;;
9722;SDS011;4900;49.306;8.500;2023-03-14T12:54:52;2.47;;;1.30;;
9722;SDS011;4900;49.306;8.500;2023-03-14T12:57:45;1.67;;;1.30;;
9722;SDS011;4900;49.306;8.500;2023-03-14T13:00:24;2.42;;;1.50;;
9722;SDS011;4900;49.306;8.500;2023-03-14T13:03:17;2.53;;;1.42;;
9722;SDS011;4900;49.306;8.500;2023-03-14T13:05:59;1.63;;;1.40;;
9722;SDS011;4900;49.306;8.500;2023-03-14T13:11:04;2.95;;;1.60;;
9722;SDS011;4900;49.306;8.500;2023-03-14T13:13:34;2.03;;;1.38;;
9722;SDS011;4900;49.306;8.500;2023-03-14T13:16:02;2.75;;;1.52;;
9722;SDS011;4900;49.306;8.500;2023-03-14T13:18:35;1.50;;;1.40;;
9722;SDS011;4900;49.306;8.500;2023-03-14T13:21:07;2.17;;;1.40;;
9722;SDS011;4900;49.306;8.500;2023-03-14T13:23:37;3.08;;;1.58;;
9722;SDS011;4900;49.306;8.500;2023-03-14T13:26:06;1.80;;;1.20;;
9722;SDS011;4900;49.306;8.500;2023-03-14T13:28:38;1.30;;;1.20;;
9722;SDS011;4900;49.306;8.500;2023-03-14T13:31:03;2.78;;;1.40;;
9722;SDS011;4900;49.306;8.500;2023-03-14T13:33:31;1.98;;;1.40;;
9722;SDS011;4900;49.306;8.500;2023-03-14T13:35:59;1.50;;;1.35;;
9722;SDS011;4900;49.306;8.500;2023-03-14T13:38:31;2.63;;;1.50;;
9722;SDS011;4900;49.306;8.500;2023-03-14T13:40:59;6.20;;;1.48;;
9722;SDS011;4900;49.306;8.500;2023-03-14T13:43:30;1.63;;;1.25;;
9722;SDS011;4900;49.306;8.500;2023-03-14T13:46:07;2.17;;;1.30;;
9722;SDS011;4900;49.306;8.500;2023-03-14T13:48:43;2.88;;;1.45;;
9722;SDS011;4900;49.306;8.500;2023-03-14T13:51:12;1.55;;;1.30;;
9722;SDS011;4900;49.306;8.500;2023-03-14T13:53:46;2.35;;;1.40;;
9722;SDS011;4900;49.306;8.500;2023-03-14T13:56:20;1.67;;;1.50;;
9722;SDS011;4900;49.306;8.500;2023-03-14T13:58:47;2.30;;;1.30;;
9722;SDS011;4900;49.306;8.500;2023-03-14T14:01:17;1.92;;;1.10;;
9722;SDS011;4900;49.306;8.500;2023-03-14T14:03:46;2.03;;;1.27;;
9722;SDS011;4900;49.306;8.500;2023-03-14T14:06:27;1.83;;;1.10;;
9722;SDS011;4900;49.306;8.500;2023-03-14T14:08:59;1.70;;;1.10;;
9722;SDS011;4900;49.306;8.500;2023-03-14T14:14:16;1.50;;;1.10;;
9722;SDS011;4900;49.306;8.500;2023-03-14T14:16:46;1.33;;;1.13;;
9722;SDS011;4900;49.306;8.500;2023-03-14T14:19:13;1.80;;;1.08;;
9722;SDS011;4900;49.306;8.500;2023-03-14T14:21:40;1.95;;;1.10;;
9722;SDS011;4900;49.306;8.500;2023-03-14T14:24:07;3.05;;;1.33;;
9722;SDS011;4900;49.306;8.500;2023-03-14T14:26:39;2.05;;;1.23;;
9722;SDS011;4900;49.306;8.500;2023-03-14T14:29:27;2.45;;;1.65;;
9722;SDS011;4900;49.306;8.500;2023-03-14T14:34:42;2.53;;;1.23;;
9722;SDS011;4900;49.306;8.500;2023-03-14T14:37:20;2.30;;;1.40;;
9722;SDS011;4900;49.306;8.500;2023-03-14T14:39:52;1.10;;;1.00;;
9722;SDS011;4900;49.306;8.500;2023-03-14T14:42:21;2.03;;;1.20;;
9722;SDS011;4900;49.306;8.500;2023-03-14T14:44:51;1.67;;;1.15;;
9722;SDS011;4900;49.306;8.500;2023-03-14T14:47:18;1.65;;;1.10;;
9722;SDS011;4900;49.306;8.500;2023-03-14T14:49:49;1.42;;;1.17;;
9722;SDS011;4900;49.306;8.500;2023-03-14T14:52:17;1.65;;;1.10;;
9722;SDS011;4900;49.306;8.500;2023-03-14T14:54:59;1.55;;;1.10;;
9722;SDS011;4900;49.306;8.500;2023-03-14T14:57:33;2.58;;;1.15;;
9722;SDS011;4900;49.306;8.500;2023-03-14T15:00:17;1.52;;;1.20;;
9722;SDS011;4900;49.306;8.500;2023-03-14T15:02:51;1.75;;;1.05;;
9722;SDS011;4900;49.306;8.500;2023-03-14T15:05:19;1.90;;;1.20;;
9722;SDS011;4900;49.306;8.500;2023-03-14T15:07:49;2.13;;;1.30;;
9722;SDS011;4900;49.306;8.500;2023-03-14T15:10:16;2.47;;;1.20;;
9722;SDS011;4900;49.306;8.500;2023-03-14T15:12:44;2.58;;;1.35;;
9722;SDS011;4900;49.306;8.500;2023-03-14T15:15:10;2.05;;;1.42;;
9722;SDS011;4900;49.306;8.500;2023-03-14T15:17:37;1.73;;;1.17;;
9722;SDS011;4900;49.306;8.500;2023-03-14T15:20:03;3.33;;;1.67;;
9722;SDS011;4900;49.306;8.500;2023-03-14T15:22:30;2.53;;;1.30;;
9722;SDS011;4900;49.306;8.500;2023-03-14T15:24:56;2.75;;;1.30;;
9722;SDS011;4900;49.306;8.500;2023-03-14T15:27:21;2.20;;;1.27;;
9722;SDS011;4900;49.306;8.500;2023-03-14T15:29:48;2.97;;;1.15;;
9722;SDS011;4900;49.306;8.500;2023-03-14T15:32:14;1.77;;;1.15;;
9722;SDS011;4900;49.306;8.500;2023-03-14T15:34:41;2.65;;;1.17;;
9722;SDS011;4900;49.306;8.500;2023-03-14T15:37:11;2.55;;;1.30;;
9722;SDS011;4900;49.306;8.500;2023-03-14T15:39:38;3.17;;;1.27;;
9722;SDS011;4900;49.306;8.500;2023-03-14T15:42:04;3.17;;;1.40;;
9722;SDS011;4900;49.306;8.500;2023-03-14T15:44:30;2.95;;;1.42;;
9722;SDS011;4900;49.306;8.500;2023-03-14T15:46:56;2.58;;;1.20;;
9722;SDS011;4900;49.306;8.500;2023-03-14T15:49:21;3.53;;;1.20;;
9722;SDS011;4900;49.306;8.500;2023-03-14T15:51:47;1.85;;;1.20;;
9722;SDS011;4900;49.306;8.500;2023-03-14T15:54:14;1.75;;;1.10;;
9722;SDS011;4900;49.306;8.500;2023-03-14T15:56:39;2.97;;;1.23;;
9722;SDS011;4900;49.306;8.500;2023-03-14T15:59:05;2.92;;;1.13;;
9722;SDS011;4900;49.306;8.500;2023-03-14T16:01:30;1.98;;;1.30;;
9722;SDS011;4900;49.306;8.500;2023-03-14T16:03:56;3.75;;;1.30;;
9722;SDS011;4900;49.306;8.500;2023-03-14T16:06:21;3.80;;;1.83;;
9722;SDS011;4900;49.306;8.500;2023-03-14T16:08:47;3.05;;;1.92;;
9722;SDS011;4900;49.306;8.500;2023-03-14T16:11:14;3.72;;;1.92;;
9722;SDS011;4900;49.306;8.500;2023-03-14T16:13:40;3.08;;;1.83;;
9722;SDS011;4900;49.306;8.500;2023-03-14T16:16:06;3.40;;;1.95;;
9722;SDS011;4900;49.306;8.500;2023-03-14T16:18:34;3.55;;;1.65;;
9722;SDS011;4900;49.306;8.500;2023-03-14T16:21:05;3.20;;;1.98;;
9722;SDS011;4900;49.306;8.500;2023-03-14T16:23:33;6.95;;;3.00;;
9722;SDS011;4900;49.306;8.500;2023-03-14T16:26:02;3.05;;;1.70;;
9722;SDS011;4900;49.306;8.500;2023-03-14T16:28:32;6.35;;;4.70;;
9722;SDS011;4900;49.306;8.500;2023-03-14T16:31:02;5.47;;;2.30;;
9722;SDS011;4900;49.306;8.500;2023-03-14T16:33:30;5.00;;;2.70;;
9722;SDS011;4900;49.306;8.500;2023-03-14T16:35:57;4.95;;;2.08;;